createdAt,value
2022-11-30T00:01:09.706Z,7.97
2022-11-30T00:03:37.276Z,10.40
2022-11-30T00:06:09.515Z,9.68
2022-11-30T00:08:36.464Z,9.85
2022-11-30T00:11:11.450Z,10.20
2022-11-30T00:13:38.216Z,9.13
2022-11-30T00:16:05.268Z,9.98
2022-11-30T00:18:32.136Z,9.07
2022-11-30T00:21:03.318Z,9.18
2022-11-30T00:23:41.227Z,8.35
2022-11-30T00:26:10.633Z,8.55
2022-11-30T00:28:38.695Z,8.90
2022-11-30T00:31:11.859Z,9.27
2022-11-30T00:33:39.283Z,8.70
2022-11-30T00:36:08.472Z,8.75
2022-11-30T00:38:35.840Z,8.55
2022-11-30T00:41:02.887Z,8.23
2022-11-30T00:43:29.576Z,9.02
2022-11-30T00:45:57.787Z,8.73
2022-11-30T00:48:24.803Z,8.95
2022-11-30T00:50:51.863Z,8.80
2022-11-30T00:53:19.532Z,8.70
2022-11-30T00:55:48.251Z,9.02
2022-11-30T00:58:15.160Z,8.52
2022-11-30T01:00:42.265Z,8.38
2022-11-30T01:03:09.279Z,8.73
2022-11-30T01:05:36.506Z,9.05
2022-11-30T01:08:04.593Z,8.80
2022-11-30T01:10:31.389Z,9.30
2022-11-30T01:12:58.032Z,9.45
2022-11-30T01:15:24.686Z,9.05
2022-11-30T01:17:51.349Z,9.50
2022-11-30T01:20:18.378Z,9.73
2022-11-30T01:22:45.002Z,9.32
2022-11-30T01:25:11.704Z,9.77
2022-11-30T01:27:38.639Z,9.18
2022-11-30T01:30:05.974Z,9.75
2022-11-30T01:32:32.637Z,9.38
2022-11-30T01:34:59.309Z,9.95
2022-11-30T01:37:25.934Z,10.00
2022-11-30T01:39:52.598Z,10.40
2022-11-30T01:42:20.620Z,10.80
2022-11-30T01:44:50.736Z,11.57
2022-11-30T01:47:20.022Z,10.63
2022-11-30T01:49:51.318Z,10.00
2022-11-30T01:52:23.096Z,11.15
2022-11-30T01:55:16.285Z,10.13
2022-11-30T01:58:06.855Z,11.52
2022-11-30T02:00:33.738Z,11.63
2022-11-30T02:03:36.104Z,10.70
2022-11-30T02:06:02.988Z,11.95
2022-11-30T02:08:31.411Z,11.77
2022-11-30T02:11:03.416Z,12.32
2022-11-30T02:13:46.882Z,11.82
2022-11-30T02:16:26.165Z,12.50
2022-11-30T02:19:35.186Z,12.02
2022-11-30T02:22:38.043Z,11.48
2022-11-30T02:25:40.764Z,11.77
2022-11-30T02:28:38.589Z,12.55
2022-11-30T02:31:10.166Z,11.30
2022-11-30T02:33:39.088Z,11.48
2022-11-30T02:36:07.145Z,12.52
2022-11-30T02:38:34.413Z,12.07
2022-11-30T02:41:02.288Z,11.18
2022-11-30T02:43:31.961Z,12.40
2022-11-30T02:46:21.294Z,11.48
2022-11-30T02:49:02.227Z,11.07
2022-11-30T02:51:32.500Z,11.25
2022-11-30T02:53:59.746Z,12.15
2022-11-30T02:56:27.031Z,11.90
2022-11-30T02:58:53.724Z,11.65
2022-11-30T03:01:21.017Z,12.88
2022-11-30T03:03:47.741Z,12.30
2022-11-30T03:06:14.422Z,12.18
2022-11-30T03:08:41.019Z,12.13
2022-11-30T03:11:07.721Z,12.20
2022-11-30T03:13:34.708Z,11.98
2022-11-30T03:16:12.413Z,12.75
2022-11-30T03:18:39.944Z,10.63
2022-11-30T03:21:11.262Z,11.70
2022-11-30T03:23:38.957Z,11.95
2022-11-30T03:26:07.992Z,11.88
2022-11-30T03:28:36.297Z,12.23
2022-11-30T03:31:03.037Z,12.02
2022-11-30T03:33:29.797Z,11.38
2022-11-30T03:36:04.501Z,11.80
2022-11-30T03:38:32.186Z,12.27
2022-11-30T03:41:08.266Z,11.00
2022-11-30T03:43:35.137Z,11.50
2022-11-30T03:46:02.099Z,11.65
2022-11-30T03:48:28.926Z,11.02
2022-11-30T03:50:55.590Z,12.27
2022-11-30T03:53:24.322Z,12.20
2022-11-30T03:55:56.541Z,12.50
2022-11-30T03:58:24.434Z,10.73
2022-11-30T04:00:59.146Z,11.98
2022-11-30T04:03:25.762Z,11.05
2022-11-30T04:05:52.419Z,10.90
2022-11-30T04:08:19.063Z,12.82
2022-11-30T04:10:51.947Z,12.85
2022-11-30T04:13:19.749Z,12.85
2022-11-30T04:15:47.731Z,13.60
2022-11-30T04:18:15.503Z,13.23
2022-11-30T04:20:42.462Z,12.75
2022-11-30T04:23:10.311Z,12.85
2022-11-30T04:25:41.354Z,12.25
2022-11-30T04:28:08.988Z,13.18
2022-11-30T04:30:36.645Z,13.38
2022-11-30T04:33:04.222Z,13.05
2022-11-30T04:35:30.982Z,13.18
2022-11-30T04:37:57.840Z,13.90
2022-11-30T04:40:24.536Z,13.32
2022-11-30T04:42:51.130Z,13.00
2022-11-30T04:45:17.781Z,12.70
2022-11-30T04:47:44.375Z,13.07
2022-11-30T04:50:11.037Z,13.00
2022-11-30T04:52:37.669Z,12.65
2022-11-30T04:55:04.660Z,12.30
2022-11-30T04:57:31.805Z,13.00
2022-11-30T04:59:58.459Z,12.90
2022-11-30T05:02:25.068Z,13.23
2022-11-30T05:04:51.896Z,12.85
2022-11-30T05:07:18.693Z,13.07
2022-11-30T05:09:45.388Z,14.68
2022-11-30T05:12:12.023Z,13.90
2022-11-30T05:14:38.648Z,15.35
2022-11-30T05:17:05.291Z,14.43
2022-11-30T05:19:31.949Z,14.85
2022-11-30T05:21:58.588Z,14.32
2022-11-30T05:24:25.269Z,14.70
2022-11-30T05:26:51.883Z,14.00
2022-11-30T05:29:18.546Z,14.18
2022-11-30T05:31:45.264Z,14.13
2022-11-30T05:34:11.917Z,14.32
2022-11-30T05:36:38.628Z,13.90
2022-11-30T05:39:05.455Z,15.07
2022-11-30T05:41:32.115Z,13.85
2022-11-30T05:43:58.791Z,14.13
2022-11-30T05:46:25.475Z,15.43
2022-11-30T05:48:52.103Z,15.30
2022-11-30T05:51:20.430Z,14.60
2022-11-30T05:53:47.413Z,14.73
2022-11-30T05:56:16.965Z,13.23
2022-11-30T05:58:44.282Z,14.95
2022-11-30T06:01:18.933Z,12.60
2022-11-30T06:03:45.823Z,12.90
2022-11-30T06:06:12.531Z,13.75
2022-11-30T06:08:39.194Z,14.05
2022-11-30T06:11:06.209Z,13.93
2022-11-30T06:13:32.945Z,12.13
2022-11-30T06:16:01.145Z,12.40
2022-11-30T06:18:28.540Z,12.35
2022-11-30T06:20:55.368Z,12.23
2022-11-30T06:23:21.988Z,12.20
2022-11-30T06:25:48.594Z,13.68
2022-11-30T06:28:15.259Z,12.35
2022-11-30T06:30:41.853Z,12.15
2022-11-30T06:33:08.518Z,11.13
2022-11-30T06:35:35.159Z,10.57
2022-11-30T06:38:01.883Z,10.77
2022-11-30T06:40:28.655Z,10.48
2022-11-30T06:42:55.348Z,10.60
2022-11-30T06:45:22.094Z,11.32
2022-11-30T06:47:48.689Z,10.40
2022-11-30T06:50:15.392Z,11.13
2022-11-30T06:52:42.050Z,11.65
2022-11-30T06:55:08.836Z,11.60
2022-11-30T06:57:35.471Z,11.48
2022-11-30T07:00:02.333Z,10.93
2022-11-30T07:02:28.941Z,10.98
2022-11-30T07:04:55.590Z,10.98
2022-11-30T07:07:22.315Z,10.48
2022-11-30T07:09:50.664Z,10.82
2022-11-30T07:12:17.553Z,11.68
2022-11-30T07:14:44.331Z,9.98
2022-11-30T07:17:11.075Z,12.43
2022-11-30T07:19:37.674Z,10.60
2022-11-30T07:22:04.471Z,10.20
2022-11-30T07:24:50.290Z,9.05
2022-11-30T07:27:17.059Z,9.50
2022-11-30T07:29:43.866Z,10.45
2022-11-30T07:32:10.607Z,10.13
2022-11-30T07:34:37.273Z,11.73
2022-11-30T07:37:03.871Z,11.52
2022-11-30T07:39:30.475Z,10.40
2022-11-30T07:41:57.152Z,9.95
2022-11-30T07:44:26.026Z,9.95
2022-11-30T07:46:52.828Z,9.70
2022-11-30T07:49:20.185Z,9.45
2022-11-30T07:51:46.842Z,10.05
2022-11-30T07:54:14.519Z,9.10
2022-11-30T07:56:41.224Z,8.77
2022-11-30T07:59:07.912Z,8.98
2022-11-30T08:01:34.711Z,9.27
2022-11-30T08:04:01.600Z,9.70
2022-11-30T08:06:31.867Z,9.75
2022-11-30T08:09:01.299Z,9.20
2022-11-30T08:11:33.784Z,8.73
2022-11-30T08:14:01.569Z,9.40
2022-11-30T08:16:29.815Z,9.25
2022-11-30T08:18:57.462Z,9.05
2022-11-30T08:21:24.736Z,8.93
2022-11-30T08:23:55.821Z,9.55
2022-11-30T08:26:28.712Z,9.10
2022-11-30T08:28:56.250Z,9.75
2022-11-30T08:31:35.210Z,9.40
2022-11-30T08:34:07.310Z,8.43
2022-11-30T08:36:34.650Z,9.18
2022-11-30T08:39:02.905Z,9.20
2022-11-30T08:41:29.573Z,9.98
2022-11-30T08:43:56.270Z,8.60
2022-11-30T08:46:50.257Z,9.52
2022-11-30T08:49:27.070Z,9.88
2022-11-30T08:54:47.599Z,9.98
2022-11-30T08:57:19.835Z,9.65
2022-11-30T08:59:46.763Z,9.13
2022-11-30T09:02:38.579Z,8.98
2022-11-30T09:05:05.699Z,9.27
2022-11-30T09:07:32.386Z,8.98
2022-11-30T09:09:59.660Z,9.15
2022-11-30T09:12:26.477Z,9.77
2022-11-30T09:14:57.894Z,9.10
2022-11-30T09:17:25.499Z,11.50
2022-11-30T09:19:52.187Z,9.93
2022-11-30T09:22:19.074Z,10.27
2022-11-30T09:24:46.181Z,10.63
2022-11-30T09:27:12.955Z,9.18
2022-11-30T09:29:39.578Z,9.70
2022-11-30T09:32:06.637Z,9.60
2022-11-30T09:34:33.276Z,9.25
2022-11-30T09:36:59.877Z,11.80
2022-11-30T09:39:26.556Z,11.07
2022-11-30T09:42:14.379Z,11.07
2022-11-30T09:45:16.499Z,12.00
2022-11-30T09:48:01.542Z,10.85
2022-11-30T09:50:31.559Z,10.43
2022-11-30T09:53:03.487Z,10.88
2022-11-30T09:55:35.934Z,11.95
2022-11-30T09:58:05.105Z,10.45
2022-11-30T10:00:33.843Z,11.18
2022-11-30T10:03:04.537Z,11.52
2022-11-30T10:05:55.680Z,11.32
2022-11-30T10:08:44.861Z,11.52
2022-11-30T10:11:41.024Z,10.40
2022-11-30T10:14:24.395Z,9.95
2022-11-30T10:16:59.888Z,11.98
2022-11-30T10:19:42.710Z,12.32
2022-11-30T10:22:24.741Z,11.05
2022-11-30T10:25:07.305Z,9.98
2022-11-30T10:28:45.095Z,11.50
2022-11-30T10:31:01.655Z,12.18
2022-11-30T10:33:38.742Z,11.23
2022-11-30T10:36:20.458Z,12.00
2022-11-30T10:38:52.975Z,11.60
2022-11-30T10:41:26.027Z,11.30
2022-11-30T10:44:06.111Z,10.15
2022-11-30T10:46:39.130Z,11.25
2022-11-30T10:49:11.665Z,10.65
2022-11-30T10:51:42.172Z,10.07
2022-11-30T10:54:21.513Z,10.15
2022-11-30T10:56:48.556Z,11.27
2022-11-30T10:59:42.452Z,10.25
2022-11-30T11:02:36.790Z,10.00
2022-11-30T11:05:20.197Z,9.63
2022-11-30T11:08:01.451Z,9.63
2022-11-30T11:10:45.225Z,10.40
2022-11-30T11:13:39.097Z,9.88
2022-11-30T11:16:08.439Z,9.57
2022-11-30T11:18:54.173Z,8.73
2022-11-30T11:21:22.756Z,9.55
2022-11-30T11:23:55.701Z,9.48
2022-11-30T11:26:27.668Z,9.82
2022-11-30T11:29:00.985Z,9.93
2022-11-30T11:31:43.979Z,10.32
2022-11-30T11:34:25.768Z,9.90
2022-11-30T11:37:14.290Z,9.98
2022-11-30T11:39:40.981Z,11.13
2022-11-30T11:42:22.481Z,11.32
2022-11-30T11:44:55.660Z,10.73
2022-11-30T11:47:32.673Z,10.00
2022-11-30T11:50:31.783Z,9.88
2022-11-30T11:53:22.553Z,9.02
2022-11-30T11:55:53.580Z,8.68
2022-11-30T11:58:37.918Z,9.02
2022-11-30T12:01:38.686Z,10.27
2022-11-30T12:04:25.983Z,9.35
2022-11-30T12:06:55.525Z,9.80
2022-11-30T12:09:27.213Z,10.70
2022-11-30T12:11:53.879Z,10.50
2022-11-30T12:14:20.580Z,11.02
2022-11-30T12:17:05.228Z,10.63
2022-11-30T12:19:40.592Z,11.52
2022-11-30T12:22:24.560Z,11.45
2022-11-30T12:25:06.169Z,10.65
2022-11-30T12:27:46.823Z,11.35
2022-11-30T12:30:27.049Z,11.55
2022-11-30T12:33:16.719Z,12.05
2022-11-30T12:35:46.953Z,11.93
2022-11-30T12:38:36.665Z,11.95
2022-11-30T12:41:21.413Z,12.30
2022-11-30T12:44:04.033Z,11.13
2022-11-30T12:46:39.807Z,11.15
2022-11-30T12:49:34.374Z,10.80
2022-11-30T12:52:20.090Z,11.98
2022-11-30T12:55:20.252Z,11.00
2022-11-30T12:58:21.337Z,10.82
2022-11-30T13:01:15.376Z,10.65
2022-11-30T13:03:58.388Z,11.32
2022-11-30T13:06:33.018Z,10.70
2022-11-30T13:09:11.796Z,10.43
2022-11-30T13:11:41.138Z,10.23
2022-11-30T13:14:14.816Z,10.20
2022-11-30T13:16:43.424Z,10.25
2022-11-30T13:19:32.921Z,11.07
2022-11-30T13:22:06.278Z,10.25
2022-11-30T13:24:39.879Z,10.68
2022-11-30T13:27:23.583Z,9.20
2022-11-30T13:29:58.929Z,10.30
2022-11-30T13:32:56.753Z,11.20
2022-11-30T13:35:28.212Z,9.85
2022-11-30T13:41:04.717Z,9.68
2022-11-30T13:43:45.177Z,9.93
2022-11-30T13:46:20.540Z,10.07
2022-11-30T13:48:48.140Z,10.63
2022-11-30T13:51:35.457Z,10.63
2022-11-30T13:54:45.655Z,10.93
2022-11-30T13:57:38.493Z,11.13
2022-11-30T14:00:31.493Z,10.00
2022-11-30T14:03:19.831Z,12.15
2022-11-30T14:05:57.856Z,10.18
2022-11-30T14:08:24.669Z,11.75
2022-11-30T14:11:29.088Z,11.15
2022-11-30T14:13:55.704Z,13.30
2022-11-30T14:16:29.707Z,13.45
2022-11-30T14:18:57.317Z,15.80
2022-11-30T14:21:32.701Z,12.25
2022-11-30T14:24:14.164Z,11.88
2022-11-30T14:26:44.444Z,10.65
2022-11-30T14:29:21.941Z,12.52
2022-11-30T14:31:56.836Z,11.35
2022-11-30T14:34:32.597Z,11.75
2022-11-30T14:37:16.068Z,11.48
2022-11-30T14:39:47.942Z,10.48
2022-11-30T14:42:26.488Z,10.75
2022-11-30T14:44:54.020Z,11.25
2022-11-30T14:47:31.172Z,11.23
2022-11-30T14:50:02.241Z,11.50
2022-11-30T14:52:49.470Z,10.63
2022-11-30T14:55:29.113Z,11.75
2022-11-30T14:57:55.719Z,10.55
2022-11-30T15:00:22.929Z,11.57
2022-11-30T15:02:49.879Z,12.40
2022-11-30T15:05:22.469Z,12.18
2022-11-30T15:07:50.209Z,11.90
2022-11-30T15:10:30.599Z,12.73
2022-11-30T15:13:01.284Z,12.07
2022-11-30T15:15:31.080Z,11.10
2022-11-30T15:17:58.720Z,12.07
2022-11-30T15:20:39.034Z,12.30
2022-11-30T15:23:11.744Z,12.35
2022-11-30T15:25:42.846Z,11.63
2022-11-30T15:28:14.500Z,11.30
2022-11-30T15:30:44.462Z,12.82
2022-11-30T15:33:22.671Z,12.13
2022-11-30T15:38:41.202Z,11.35
2022-11-30T15:41:25.548Z,11.50
2022-11-30T15:43:54.833Z,10.32
2022-11-30T15:46:46.019Z,10.60
2022-11-30T15:49:28.313Z,10.48
2022-11-30T15:52:09.798Z,10.57
2022-11-30T15:54:55.140Z,9.45
2022-11-30T15:57:24.252Z,11.93
2022-11-30T16:00:14.678Z,11.32
2022-11-30T16:02:41.423Z,10.48
2022-11-30T16:05:14.934Z,11.40
2022-11-30T16:10:37.936Z,12.02
2022-11-30T16:13:05.430Z,11.95
2022-11-30T16:15:35.864Z,10.88
2022-11-30T16:18:08.492Z,12.68
2022-11-30T16:20:35.250Z,11.38
2022-11-30T16:23:05.784Z,11.85
2022-11-30T16:25:32.781Z,11.05
2022-11-30T16:27:59.393Z,12.85
2022-11-30T16:30:26.053Z,12.52
2022-11-30T16:32:52.863Z,14.00
2022-11-30T16:35:40.273Z,13.75
2022-11-30T16:38:07.382Z,12.75
2022-11-30T16:40:38.563Z,13.95
2022-11-30T16:43:06.058Z,14.52
2022-11-30T16:45:37.636Z,14.00
2022-11-30T16:48:05.010Z,13.60
2022-11-30T16:50:34.548Z,14.45
2022-11-30T16:53:02.045Z,14.13
2022-11-30T16:55:31.636Z,15.50
2022-11-30T16:57:58.581Z,14.95
2022-11-30T17:00:25.250Z,17.17
2022-11-30T17:02:59.670Z,16.63
2022-11-30T17:05:27.520Z,16.13
2022-11-30T17:07:55.236Z,18.92
2022-11-30T17:10:22.387Z,17.73
2022-11-30T17:12:49.354Z,18.13
2022-11-30T17:15:21.640Z,16.52
2022-11-30T17:17:48.347Z,18.65
2022-11-30T17:20:16.861Z,19.13
2022-11-30T17:22:44.541Z,18.55
2022-11-30T17:25:18.213Z,17.45
2022-11-30T17:27:45.560Z,18.40
2022-11-30T17:30:14.694Z,17.58
2022-11-30T17:32:41.388Z,17.85
2022-11-30T17:35:08.843Z,19.63
2022-11-30T17:37:35.981Z,21.23
2022-11-30T17:40:04.042Z,20.02
2022-11-30T17:42:31.067Z,18.98
2022-11-30T17:44:57.819Z,19.10
2022-11-30T17:47:24.627Z,18.15
2022-11-30T17:49:51.430Z,18.73
2022-11-30T17:52:18.045Z,20.13
2022-11-30T17:54:44.753Z,20.10
2022-11-30T17:57:11.442Z,19.83
2022-11-30T17:59:38.085Z,20.80
2022-11-30T18:02:04.928Z,21.52
2022-11-30T18:04:31.615Z,21.90
2022-11-30T18:06:58.225Z,20.02
2022-11-30T18:09:24.851Z,20.77
2022-11-30T18:11:51.500Z,20.20
2022-11-30T18:14:18.095Z,19.60
2022-11-30T18:16:44.923Z,20.10
2022-11-30T18:19:13.172Z,19.83
2022-11-30T18:21:41.415Z,20.52
2022-11-30T18:24:09.473Z,21.08
2022-11-30T18:26:36.113Z,22.20
2022-11-30T18:29:03.178Z,21.15
2022-11-30T18:31:30.713Z,22.02
2022-11-30T18:34:03.301Z,20.60
2022-11-30T18:36:30.766Z,22.80
2022-11-30T18:38:58.051Z,22.83
2022-11-30T18:41:26.197Z,23.85
2022-11-30T18:43:53.534Z,21.80
2022-11-30T18:46:20.780Z,25.92
2022-11-30T18:48:51.822Z,28.70
2022-11-30T18:51:24.011Z,30.13
2022-11-30T18:53:57.589Z,23.98
2022-11-30T18:56:26.004Z,31.17
2022-11-30T18:59:06.372Z,35.30
2022-11-30T19:01:34.488Z,29.92
2022-11-30T19:04:03.969Z,30.55
2022-11-30T19:06:32.738Z,29.92
2022-11-30T19:09:10.694Z,29.90
2022-11-30T19:11:38.622Z,25.90
2022-11-30T19:14:06.311Z,27.10
2022-11-30T19:16:34.667Z,27.55
2022-11-30T19:19:04.803Z,26.63
2022-11-30T19:21:31.870Z,28.05
2022-11-30T19:23:59.029Z,28.52
2022-11-30T19:26:27.845Z,24.10
2022-11-30T19:28:55.699Z,21.88
2022-11-30T19:31:23.493Z,20.00
2022-11-30T19:33:52.723Z,22.60
2022-11-30T19:36:28.150Z,23.45
2022-11-30T19:38:55.134Z,22.50
2022-11-30T19:41:22.354Z,24.35
2022-11-30T19:44:02.737Z,21.60
2022-11-30T19:46:31.750Z,22.02
2022-11-30T19:49:00.665Z,20.30
2022-11-30T19:51:28.410Z,20.65
2022-11-30T19:53:55.511Z,21.75
2022-11-30T19:56:23.464Z,21.95
2022-11-30T19:58:50.498Z,20.45
2022-11-30T20:01:22.931Z,21.33
2022-11-30T20:03:51.166Z,21.25
2022-11-30T20:06:18.891Z,21.52
2022-11-30T20:08:45.968Z,20.52
2022-11-30T20:11:15.252Z,19.70
2022-11-30T20:13:45.848Z,20.45
2022-11-30T20:16:14.729Z,20.52
2022-11-30T20:18:46.020Z,18.00
2022-11-30T20:21:22.132Z,20.05
2022-11-30T20:23:49.745Z,20.85
2022-11-30T20:26:26.217Z,17.75
2022-11-30T20:28:53.166Z,18.50
2022-11-30T20:31:22.025Z,19.88
2022-11-30T20:33:49.461Z,19.60
2022-11-30T20:36:17.354Z,21.73
2022-11-30T20:38:44.335Z,20.02
2022-11-30T20:41:13.536Z,19.00
2022-11-30T20:43:40.921Z,20.27
2022-11-30T20:46:20.288Z,20.60
2022-11-30T20:48:47.667Z,20.52
2022-11-30T20:51:33.550Z,19.77
2022-11-30T20:54:02.948Z,19.08
2022-11-30T20:56:29.997Z,20.40
2022-11-30T20:58:59.972Z,20.23
2022-11-30T21:01:26.570Z,20.23
2022-11-30T21:03:53.227Z,20.52
2022-11-30T21:06:19.980Z,19.67
2022-11-30T21:08:46.582Z,23.20
2022-11-30T21:11:16.262Z,22.42
2022-11-30T21:13:44.824Z,23.27
2022-11-30T21:16:13.311Z,22.77
2022-11-30T21:18:43.208Z,24.48
2022-11-30T21:21:15.876Z,22.98
2022-11-30T21:23:42.970Z,23.83
2022-11-30T21:26:25.168Z,22.23
2022-11-30T21:28:54.096Z,22.02
2022-11-30T21:31:22.153Z,21.40
2022-11-30T21:33:53.172Z,20.35
2022-11-30T21:36:21.830Z,17.73
2022-11-30T21:38:53.145Z,19.40
2022-11-30T21:41:19.841Z,18.60
2022-11-30T21:43:46.507Z,18.70
2022-11-30T21:46:15.738Z,17.23
2022-11-30T21:48:44.293Z,18.10
2022-11-30T21:51:13.116Z,18.52
2022-11-30T21:53:44.491Z,17.95
2022-11-30T21:56:14.618Z,17.63
2022-11-30T21:58:45.007Z,19.60
2022-11-30T22:01:17.264Z,18.95
2022-11-30T22:03:43.943Z,17.35
2022-11-30T22:06:12.885Z,18.48
2022-11-30T22:08:40.980Z,19.83
2022-11-30T22:11:10.231Z,19.02
2022-11-30T22:13:37.373Z,18.00
2022-11-30T22:16:06.926Z,18.25
2022-11-30T22:18:34.301Z,15.82
2022-11-30T22:21:06.387Z,17.77
2022-11-30T22:23:38.279Z,17.85
2022-11-30T22:26:20.291Z,17.85
2022-11-30T22:28:51.573Z,16.48
2022-11-30T22:31:19.930Z,16.25
2022-11-30T22:33:47.577Z,16.83
2022-11-30T22:36:23.012Z,17.38
2022-11-30T22:38:54.996Z,17.27
2022-11-30T22:41:21.998Z,16.00
2022-11-30T22:43:49.315Z,16.48
2022-11-30T22:46:19.506Z,14.68
2022-11-30T22:48:47.199Z,15.55
2022-11-30T22:51:16.429Z,15.02
2022-11-30T22:53:43.273Z,15.27
2022-11-30T22:56:15.142Z,16.90
2022-11-30T22:58:43.331Z,15.32
2022-11-30T23:01:20.075Z,15.57
2022-11-30T23:03:48.515Z,14.73
2022-11-30T23:06:16.578Z,14.40
2022-11-30T23:08:44.418Z,15.90
2022-11-30T23:11:13.933Z,15.82
2022-11-30T23:13:41.900Z,15.43
2022-11-30T23:16:10.203Z,14.77
2022-11-30T23:18:46.286Z,14.57
2022-11-30T23:21:19.085Z,15.23
2022-11-30T23:23:46.902Z,16.30
2022-11-30T23:26:23.001Z,15.20
2022-11-30T23:28:51.756Z,14.98
2022-11-30T23:31:34.691Z,16.58
2022-11-30T23:34:05.550Z,17.25
2022-11-30T23:36:33.503Z,15.15
2022-11-30T23:39:04.378Z,14.82
2022-11-30T23:41:31.220Z,14.98
2022-11-30T23:43:58.228Z,14.10
2022-11-30T23:46:25.475Z,14.55
2022-11-30T23:48:52.445Z,14.50
2022-11-30T23:51:19.160Z,14.52
2022-11-30T23:53:45.938Z,15.57
2022-11-30T23:56:15.002Z,16.75
2022-11-30T23:58:41.970Z,17.30
